createdAt,value
2022-10-28T00:01:19.210Z,10.60
2022-10-28T00:03:52.584Z,10.52
2022-10-28T00:06:23.027Z,10.50
2022-10-28T00:08:51.247Z,10.85
2022-10-28T00:11:21.692Z,10.45
2022-10-28T00:13:50.881Z,10.40
2022-10-28T00:16:25.173Z,11.25
2022-10-28T00:18:54.116Z,10.75
2022-10-28T00:21:25.315Z,10.35
2022-10-28T00:23:53.384Z,10.23
2022-10-28T00:26:23.873Z,11.15
2022-10-28T00:28:56.433Z,10.93
2022-10-28T00:31:25.846Z,11.75
2022-10-28T00:33:54.258Z,10.73
2022-10-28T00:36:23.953Z,11.25
2022-10-28T00:38:53.749Z,11.00
2022-10-28T00:41:24.126Z,11.82
2022-10-28T00:43:55.009Z,11.23
2022-10-28T00:46:42.932Z,11.10
2022-10-28T00:49:30.143Z,11.45
2022-10-28T00:52:04.557Z,11.27
2022-10-28T00:54:33.528Z,10.93
2022-10-28T00:57:04.096Z,11.52
2022-10-28T00:59:35.222Z,11.27
2022-10-28T01:02:03.502Z,11.63
2022-10-28T01:04:31.852Z,11.10
2022-10-28T01:07:01.295Z,11.60
2022-10-28T01:09:28.934Z,11.15
2022-10-28T01:12:29.061Z,11.57
2022-10-28T01:15:07.613Z,11.27
2022-10-28T01:17:56.917Z,11.32
2022-10-28T01:20:43.292Z,10.80
2022-10-28T01:23:34.350Z,11.98
2022-10-28T01:26:50.010Z,12.38
2022-10-28T01:29:46.832Z,11.35
2022-10-28T01:32:25.576Z,11.65
2022-10-28T01:35:09.670Z,10.88
2022-10-28T01:37:55.739Z,11.50
2022-10-28T01:40:33.801Z,10.73
2022-10-28T01:43:22.981Z,11.07
2022-10-28T01:46:14.573Z,11.07
2022-10-28T01:48:57.434Z,10.98
2022-10-28T01:51:32.107Z,11.80
2022-10-28T01:54:03.422Z,11.07
2022-10-28T01:56:36.256Z,12.00
2022-10-28T01:59:07.749Z,11.07
2022-10-28T02:01:36.687Z,11.18
2022-10-28T02:04:04.505Z,10.80
2022-10-28T02:06:34.743Z,11.07
2022-10-28T02:09:17.660Z,11.18
2022-10-28T02:12:08.048Z,11.88
2022-10-28T02:14:51.054Z,11.52
2022-10-28T02:17:56.279Z,11.00
2022-10-28T02:20:51.307Z,11.52
2022-10-28T02:23:28.602Z,12.02
2022-10-28T02:25:58.158Z,11.13
2022-10-28T02:28:31.857Z,11.60
2022-10-28T02:31:10.597Z,11.55
2022-10-28T02:33:41.644Z,11.35
2022-10-28T02:36:13.942Z,11.80
2022-10-28T02:38:50.624Z,12.15
2022-10-28T02:41:44.893Z,11.55
2022-10-28T02:44:16.213Z,11.77
2022-10-28T02:46:47.099Z,11.60
2022-10-28T02:49:15.584Z,12.07
2022-10-28T02:51:58.157Z,11.65
2022-10-28T02:54:35.752Z,11.82
2022-10-28T02:57:06.264Z,10.93
2022-10-28T02:59:34.033Z,11.45
2022-10-28T03:02:01.830Z,11.48
2022-10-28T03:04:29.425Z,11.65
2022-10-28T03:06:56.993Z,11.85
2022-10-28T03:09:24.674Z,11.57
2022-10-28T03:11:52.215Z,11.57
2022-10-28T03:14:19.560Z,11.70
2022-10-28T03:16:47.100Z,11.95
2022-10-28T03:19:14.626Z,11.63
2022-10-28T03:21:42.145Z,11.35
2022-10-28T03:24:09.462Z,10.77
2022-10-28T03:26:36.988Z,11.30
2022-10-28T03:29:05.038Z,11.70
2022-10-28T03:31:33.537Z,11.48
2022-10-28T03:34:01.012Z,12.00
2022-10-28T03:36:28.617Z,12.35
2022-10-28T03:38:55.993Z,11.75
2022-10-28T03:41:24.154Z,12.20
2022-10-28T03:43:51.478Z,11.90
2022-10-28T03:46:19.033Z,11.75
2022-10-28T03:48:47.052Z,11.60
2022-10-28T03:51:14.738Z,12.48
2022-10-28T03:53:42.025Z,11.40
2022-10-28T03:56:11.407Z,10.93
2022-10-28T03:58:41.094Z,11.68
2022-10-28T04:01:09.187Z,12.10
2022-10-28T04:03:36.684Z,11.55
2022-10-28T04:06:04.546Z,11.13
2022-10-28T04:08:31.909Z,12.00
2022-10-28T04:10:59.498Z,12.32
2022-10-28T04:13:27.352Z,11.45
2022-10-28T04:15:56.577Z,11.38
2022-10-28T04:18:23.957Z,11.73
2022-10-28T04:20:51.571Z,11.80
2022-10-28T04:23:19.850Z,12.32
2022-10-28T04:25:51.204Z,12.00
2022-10-28T04:28:18.710Z,11.55
2022-10-28T04:30:47.529Z,11.93
2022-10-28T04:33:15.032Z,11.63
2022-10-28T04:35:43.273Z,11.85
2022-10-28T04:38:11.491Z,12.52
2022-10-28T04:40:39.081Z,11.73
2022-10-28T04:43:08.552Z,11.73
2022-10-28T04:45:38.869Z,11.73
2022-10-28T04:48:06.748Z,11.57
2022-10-28T04:50:34.346Z,11.80
2022-10-28T04:53:01.641Z,11.68
2022-10-28T04:55:29.242Z,11.35
2022-10-28T04:57:58.338Z,11.50
2022-10-28T05:00:27.408Z,11.45
2022-10-28T05:02:55.086Z,12.40
2022-10-28T05:05:23.126Z,11.40
2022-10-28T05:07:50.749Z,11.32
2022-10-28T05:10:18.412Z,11.65
2022-10-28T05:12:46.226Z,12.20
2022-10-28T05:15:14.768Z,11.95
2022-10-28T05:17:46.889Z,11.40
2022-10-28T05:20:17.384Z,11.77
2022-10-28T05:22:53.913Z,11.40
2022-10-28T05:25:22.601Z,11.45
2022-10-28T05:27:50.115Z,11.07
2022-10-28T05:30:18.261Z,11.43
2022-10-28T05:32:47.472Z,11.40
2022-10-28T05:35:16.826Z,12.38
2022-10-28T05:37:44.184Z,11.85
2022-10-28T05:40:12.217Z,12.77
2022-10-28T05:42:43.332Z,11.57
2022-10-28T05:45:11.698Z,11.23
2022-10-28T05:47:46.663Z,11.85
2022-10-28T05:52:47.182Z,11.23
2022-10-28T05:55:15.253Z,11.25
2022-10-28T05:57:43.158Z,11.38
2022-10-28T06:00:11.571Z,11.63
2022-10-28T06:02:39.069Z,11.45
2022-10-28T06:05:07.224Z,11.88
2022-10-28T06:07:35.008Z,11.60
2022-10-28T06:10:03.108Z,11.82
2022-10-28T06:12:29.001Z,11.82
2022-10-28T06:14:56.525Z,11.25
2022-10-28T06:17:24.126Z,11.57
2022-10-28T06:19:51.744Z,11.45
2022-10-28T06:22:19.127Z,11.20
2022-10-28T06:24:46.838Z,11.40
2022-10-28T06:27:14.213Z,11.60
2022-10-28T06:29:41.886Z,11.60
2022-10-28T06:32:09.585Z,10.95
2022-10-28T06:34:37.809Z,11.40
2022-10-28T06:37:09.228Z,11.18
2022-10-28T06:39:38.226Z,11.27
2022-10-28T06:42:06.170Z,11.32
2022-10-28T06:44:33.754Z,11.57
2022-10-28T06:47:02.562Z,11.45
2022-10-28T06:49:30.221Z,11.02
2022-10-28T06:51:57.633Z,11.35
2022-10-28T06:54:25.504Z,11.02
2022-10-28T06:56:54.002Z,11.23
2022-10-28T06:59:21.493Z,10.57
2022-10-28T07:01:49.009Z,11.35
2022-10-28T07:04:16.714Z,11.00
2022-10-28T07:06:46.346Z,11.20
2022-10-28T07:09:16.240Z,10.65
2022-10-28T07:11:44.822Z,11.40
2022-10-28T07:14:12.490Z,11.05
2022-10-28T07:16:40.019Z,11.35
2022-10-28T07:19:07.704Z,11.25
2022-10-28T07:21:36.059Z,11.40
2022-10-28T07:24:04.160Z,11.18
2022-10-28T07:26:31.476Z,11.45
2022-10-28T07:28:59.643Z,11.65
2022-10-28T07:31:27.778Z,11.30
2022-10-28T07:33:55.427Z,11.05
2022-10-28T07:36:22.906Z,11.30
2022-10-28T07:38:52.105Z,11.35
2022-10-28T07:41:21.940Z,11.02
2022-10-28T07:43:49.940Z,11.40
2022-10-28T07:46:18.880Z,10.88
2022-10-28T07:48:47.493Z,11.75
2022-10-28T07:51:15.789Z,11.35
2022-10-28T07:53:43.526Z,10.80
2022-10-28T07:56:13.940Z,11.27
2022-10-28T07:58:43.594Z,11.55
2022-10-28T08:01:15.038Z,10.80
2022-10-28T08:03:43.235Z,10.77
2022-10-28T08:06:19.200Z,11.13
2022-10-28T08:08:48.282Z,11.38
2022-10-28T08:11:24.497Z,11.07
2022-10-28T08:13:53.100Z,11.38
2022-10-28T08:16:20.447Z,11.50
2022-10-28T08:18:48.382Z,10.75
2022-10-28T08:21:16.752Z,10.82
2022-10-28T08:23:47.101Z,11.00
2022-10-28T08:26:16.215Z,10.77
2022-10-28T08:28:43.828Z,11.02
2022-10-28T08:31:12.511Z,11.18
2022-10-28T08:33:42.623Z,11.35
2022-10-28T08:36:12.650Z,10.25
2022-10-28T08:38:45.120Z,11.05
2022-10-28T08:41:28.576Z,11.20
2022-10-28T08:44:14.444Z,10.48
2022-10-28T08:49:32.167Z,10.27
2022-10-28T08:52:21.983Z,10.57
2022-10-28T08:55:02.248Z,10.77
2022-10-28T08:57:43.041Z,10.35
2022-10-28T09:00:32.022Z,10.77
2022-10-28T09:03:11.854Z,10.38
2022-10-28T09:05:41.310Z,10.25
2022-10-28T09:08:20.157Z,9.80
2022-10-28T09:10:50.501Z,10.38
2022-10-28T09:13:23.476Z,10.57
2022-10-28T09:16:06.067Z,9.93
2022-10-28T09:18:53.275Z,10.90
2022-10-28T09:21:40.981Z,10.10
2022-10-28T09:24:38.531Z,10.25
2022-10-28T09:27:49.771Z,9.73
2022-10-28T09:30:22.007Z,9.63
2022-10-28T09:32:52.981Z,10.13
2022-10-28T09:35:26.740Z,9.68
2022-10-28T09:38:02.248Z,9.45
2022-10-28T09:40:33.719Z,10.07
2022-10-28T09:43:11.976Z,9.43
2022-10-28T09:45:45.924Z,9.73
2022-10-28T09:48:19.485Z,10.25
2022-10-28T09:50:50.867Z,9.13
2022-10-28T09:53:36.035Z,9.20
2022-10-28T09:56:06.286Z,9.25
2022-10-28T09:58:35.631Z,9.77
2022-10-28T10:01:04.884Z,9.65
2022-10-28T10:03:33.704Z,9.02
2022-10-28T10:06:13.323Z,9.43
2022-10-28T10:08:42.020Z,8.95
2022-10-28T10:11:20.517Z,9.68
2022-10-28T10:13:49.352Z,8.88
2022-10-28T10:16:40.072Z,9.98
2022-10-28T10:19:10.943Z,9.40
2022-10-28T10:21:44.569Z,9.00
2022-10-28T10:24:31.517Z,9.15
2022-10-28T10:27:11.030Z,9.38
2022-10-28T10:29:45.669Z,8.80
2022-10-28T10:32:12.943Z,9.25
2022-10-28T10:34:45.865Z,8.98
2022-10-28T10:37:21.085Z,8.77
2022-10-28T10:42:46.583Z,8.63
2022-10-28T10:45:28.297Z,8.80
2022-10-28T10:48:12.887Z,8.68
2022-10-28T10:50:44.006Z,8.93
2022-10-28T10:53:24.249Z,8.77
2022-10-28T10:56:04.591Z,8.40
2022-10-28T10:58:47.064Z,8.00
2022-10-28T11:01:19.869Z,8.30
2022-10-28T11:04:00.604Z,8.13
2022-10-28T11:06:30.900Z,8.23
2022-10-28T11:09:02.495Z,8.30
2022-10-28T11:11:40.758Z,9.07
2022-10-28T11:14:08.961Z,8.65
2022-10-28T11:16:55.660Z,8.23
2022-10-28T11:19:28.969Z,8.52
2022-10-28T11:22:06.222Z,8.52
2022-10-28T11:25:04.764Z,8.60
2022-10-28T11:27:38.484Z,7.60
2022-10-28T11:30:17.098Z,8.18
2022-10-28T11:33:14.850Z,8.00
2022-10-28T11:35:57.165Z,8.38
2022-10-28T11:38:47.739Z,8.02
2022-10-28T11:41:36.292Z,8.75
2022-10-28T11:44:17.289Z,7.35
2022-10-28T11:47:05.445Z,8.30
2022-10-28T11:49:42.080Z,8.18
2022-10-28T11:52:30.931Z,8.50
2022-10-28T11:55:19.964Z,7.35
2022-10-28T11:57:47.305Z,7.40
2022-10-28T12:00:22.036Z,7.85
2022-10-28T12:03:19.830Z,7.05
2022-10-28T12:05:54.919Z,7.63
2022-10-28T12:11:01.580Z,7.80
2022-10-28T12:13:47.183Z,7.47
2022-10-28T12:16:40.785Z,7.32
2022-10-28T12:19:17.991Z,7.20
2022-10-28T12:22:23.152Z,7.18
2022-10-28T12:24:52.896Z,7.35
2022-10-28T12:27:31.211Z,7.28
2022-10-28T12:30:03.428Z,7.80
2022-10-28T12:32:34.326Z,7.22
2022-10-28T12:35:08.000Z,7.15
2022-10-28T12:37:44.661Z,7.07
2022-10-28T12:40:25.095Z,6.65
2022-10-28T12:43:11.811Z,7.53
2022-10-28T12:45:41.499Z,7.03
2022-10-28T12:48:24.212Z,7.40
2022-10-28T12:51:00.943Z,7.30
2022-10-28T12:53:56.419Z,7.18
2022-10-28T12:56:33.595Z,6.72
2022-10-28T12:59:10.658Z,6.68
2022-10-28T13:01:38.349Z,6.85
2022-10-28T13:04:06.348Z,6.38
2022-10-28T13:06:52.365Z,7.15
2022-10-28T13:09:52.632Z,6.50
2022-10-28T13:12:41.419Z,6.68
2022-10-28T13:15:21.794Z,6.22
2022-10-28T13:18:10.859Z,6.22
2022-10-28T13:20:47.412Z,6.50
2022-10-28T13:23:26.789Z,7.00
2022-10-28T13:26:22.163Z,7.28
2022-10-28T13:28:54.003Z,6.97
2022-10-28T13:31:22.007Z,7.57
2022-10-28T13:33:57.623Z,6.13
2022-10-28T13:36:28.595Z,6.40
2022-10-28T13:38:59.953Z,6.97
2022-10-28T13:41:35.535Z,6.35
2022-10-28T13:44:08.807Z,5.80
2022-10-28T13:47:04.758Z,5.80
2022-10-28T13:49:33.968Z,6.15
2022-10-28T13:52:07.570Z,5.90
2022-10-28T13:54:43.671Z,5.45
2022-10-28T13:57:43.196Z,5.93
2022-10-28T14:00:23.387Z,5.88
2022-10-28T14:02:57.099Z,6.28
2022-10-28T14:05:37.250Z,5.55
2022-10-28T14:08:07.812Z,5.05
2022-10-28T14:10:40.464Z,5.30
2022-10-28T14:13:22.433Z,5.45
2022-10-28T14:15:51.456Z,5.15
2022-10-28T14:18:42.568Z,5.40
2022-10-28T14:21:10.687Z,5.15
2022-10-28T14:23:44.090Z,5.43
2022-10-28T14:26:11.543Z,5.35
2022-10-28T14:28:39.011Z,5.80
2022-10-28T14:31:09.675Z,5.70
2022-10-28T14:33:42.536Z,6.13
2022-10-28T14:36:19.389Z,4.82
2022-10-28T14:39:06.080Z,5.80
2022-10-28T14:41:56.051Z,5.68
2022-10-28T14:44:57.595Z,5.00
2022-10-28T14:48:01.779Z,5.22
2022-10-28T14:50:39.755Z,5.75
2022-10-28T14:53:15.034Z,5.13
2022-10-28T14:55:47.336Z,5.05
2022-10-28T14:58:28.598Z,4.90
2022-10-28T15:01:03.703Z,5.15
2022-10-28T15:03:32.119Z,5.25
2022-10-28T15:06:19.289Z,5.43
2022-10-28T15:08:46.949Z,4.85
2022-10-28T15:11:17.016Z,5.07
2022-10-28T15:13:44.552Z,5.13
2022-10-28T15:16:25.636Z,4.38
2022-10-28T15:18:54.443Z,5.22
2022-10-28T15:21:22.732Z,5.10
2022-10-28T15:24:01.118Z,5.43
2022-10-28T15:26:28.912Z,6.22
2022-10-28T15:28:56.586Z,5.07
2022-10-28T15:31:24.109Z,4.95
2022-10-28T15:33:51.759Z,4.88
2022-10-28T15:36:22.700Z,5.05
2022-10-28T15:39:15.094Z,5.47
2022-10-28T15:41:50.967Z,4.75
2022-10-28T15:44:26.734Z,5.15
2022-10-28T15:46:56.197Z,4.43
2022-10-28T15:49:36.293Z,4.68
2022-10-28T15:52:34.792Z,4.53
2022-10-28T15:55:35.961Z,5.72
2022-10-28T15:58:19.305Z,4.75
2022-10-28T16:00:58.325Z,5.03
2022-10-28T16:03:47.236Z,4.78
2022-10-28T16:06:31.507Z,4.75
2022-10-28T16:09:19.087Z,5.00
2022-10-28T16:11:51.221Z,4.80
2022-10-28T16:14:45.334Z,4.75
2022-10-28T16:17:19.870Z,4.68
2022-10-28T16:19:56.638Z,5.00
2022-10-28T16:22:27.039Z,5.10
2022-10-28T16:24:55.309Z,4.65
2022-10-28T16:27:25.366Z,4.80
2022-10-28T16:29:53.410Z,5.10
2022-10-28T16:32:51.147Z,4.88
2022-10-28T16:35:24.114Z,5.07
2022-10-28T16:37:55.394Z,4.55
2022-10-28T16:40:50.486Z,4.75
2022-10-28T16:43:19.810Z,4.78
2022-10-28T16:45:49.021Z,4.82
2022-10-28T16:48:17.720Z,5.35
2022-10-28T16:50:50.495Z,4.97
2022-10-28T16:53:18.663Z,4.82
2022-10-28T16:55:46.601Z,4.78
2022-10-28T16:58:14.672Z,4.50
2022-10-28T17:00:43.084Z,4.65
2022-10-28T17:03:17.089Z,4.63
2022-10-28T17:05:44.754Z,5.13
2022-10-28T17:08:12.558Z,4.80
2022-10-28T17:10:41.936Z,4.57
2022-10-28T17:13:12.716Z,4.63
2022-10-28T17:15:41.763Z,5.10
2022-10-28T17:18:10.938Z,4.53
2022-10-28T17:20:38.952Z,4.38
2022-10-28T17:23:07.766Z,4.57
2022-10-28T17:25:35.712Z,4.53
2022-10-28T17:28:03.336Z,4.72
2022-10-28T17:30:31.254Z,4.55
2022-10-28T17:32:58.738Z,4.22
2022-10-28T17:35:27.207Z,4.10
2022-10-28T17:37:54.894Z,4.85
2022-10-28T17:40:22.696Z,4.60
2022-10-28T17:42:50.562Z,4.60
2022-10-28T17:45:21.158Z,4.70
2022-10-28T17:47:49.626Z,4.50
2022-10-28T17:50:17.756Z,4.53
2022-10-28T17:52:45.700Z,4.47
2022-10-28T17:55:13.251Z,4.32
2022-10-28T17:57:40.597Z,4.57
2022-10-28T18:00:09.067Z,4.60
2022-10-28T18:02:36.611Z,4.80
2022-10-28T18:05:04.300Z,4.43
2022-10-28T18:07:31.645Z,4.82
2022-10-28T18:09:59.305Z,4.13
2022-10-28T18:12:26.702Z,4.80
2022-10-28T18:14:54.225Z,4.78
2022-10-28T18:17:21.531Z,4.30
2022-10-28T18:19:49.059Z,4.50
2022-10-28T18:22:16.470Z,4.30
2022-10-28T18:24:44.153Z,4.65
2022-10-28T18:27:11.500Z,4.85
2022-10-28T18:29:39.127Z,4.32
2022-10-28T18:32:06.535Z,4.68
2022-10-28T18:34:34.170Z,4.60
2022-10-28T18:37:03.993Z,4.28
2022-10-28T18:39:31.619Z,4.35
2022-10-28T18:41:58.959Z,4.95
2022-10-28T18:44:31.752Z,4.65
2022-10-28T18:46:59.460Z,4.60
2022-10-28T18:49:26.886Z,4.25
2022-10-28T18:51:54.557Z,4.28
2022-10-28T18:54:22.005Z,4.30
2022-10-28T18:56:52.364Z,4.25
2022-10-28T18:59:21.500Z,3.78
2022-10-28T19:01:48.899Z,4.57
2022-10-28T19:04:16.562Z,4.20
2022-10-28T19:06:44.030Z,4.13
2022-10-28T19:09:13.130Z,4.75
2022-10-28T19:11:41.885Z,4.18
2022-10-28T19:14:09.852Z,4.57
2022-10-28T19:16:37.093Z,4.95
2022-10-28T19:19:05.213Z,4.38
2022-10-28T19:21:32.959Z,4.20
2022-10-28T19:24:01.213Z,4.82
2022-10-28T19:26:31.824Z,3.63
2022-10-28T19:28:59.350Z,4.72
2022-10-28T19:31:27.772Z,4.65
2022-10-28T19:33:55.432Z,4.38
2022-10-28T19:36:28.308Z,4.10
2022-10-28T19:38:56.913Z,4.05
2022-10-28T19:41:29.516Z,4.18
2022-10-28T19:43:59.210Z,4.03
2022-10-28T19:46:32.823Z,4.70
2022-10-28T19:49:03.077Z,4.47
2022-10-28T19:51:33.071Z,4.10
2022-10-28T19:54:03.612Z,4.50
2022-10-28T19:56:33.005Z,4.55
2022-10-28T19:59:02.715Z,4.22
2022-10-28T20:01:33.520Z,4.40
2022-10-28T20:04:01.157Z,4.68
2022-10-28T20:06:35.289Z,4.20
2022-10-28T20:09:03.137Z,4.20
2022-10-28T20:11:33.652Z,4.38
2022-10-28T20:14:09.510Z,4.43
2022-10-28T20:16:41.850Z,4.80
2022-10-28T20:19:09.397Z,4.05
2022-10-28T20:21:38.259Z,4.25
2022-10-28T20:24:08.099Z,4.38
2022-10-28T20:26:38.878Z,4.40
2022-10-28T20:29:10.072Z,3.83
2022-10-28T20:31:40.931Z,4.78
2022-10-28T20:34:09.539Z,4.10
2022-10-28T20:36:40.751Z,4.40
2022-10-28T20:39:13.562Z,4.20
2022-10-28T20:41:42.640Z,4.65
2022-10-28T20:44:10.883Z,4.00
2022-10-28T20:46:41.309Z,4.00
2022-10-28T20:49:09.780Z,4.72
2022-10-28T20:51:37.915Z,4.60
2022-10-28T20:54:06.189Z,4.38
2022-10-28T20:56:36.696Z,4.28
2022-10-28T20:59:05.480Z,4.50
2022-10-28T21:01:41.725Z,4.28
2022-10-28T21:04:11.222Z,4.30
2022-10-28T21:06:40.148Z,4.10
2022-10-28T21:09:08.704Z,3.83
2022-10-28T21:11:37.092Z,4.50
2022-10-28T21:14:04.553Z,3.80
2022-10-28T21:16:32.317Z,4.45
2022-10-28T21:18:59.803Z,4.15
2022-10-28T21:21:28.034Z,4.35
2022-10-28T21:23:58.006Z,4.15
2022-10-28T21:26:27.074Z,4.20
2022-10-28T21:28:56.272Z,4.53
2022-10-28T21:31:24.492Z,3.95
2022-10-28T21:33:53.367Z,3.80
2022-10-28T21:36:22.068Z,4.38
2022-10-28T21:38:53.395Z,4.47
2022-10-28T21:41:21.732Z,3.90
2022-10-28T21:43:50.734Z,3.83
2022-10-28T21:46:20.009Z,4.18
2022-10-28T21:48:47.558Z,4.07
2022-10-28T21:51:16.383Z,4.20
2022-10-28T21:53:45.170Z,4.25
2022-10-28T21:56:18.122Z,4.20
2022-10-28T21:58:51.055Z,4.10
2022-10-28T22:01:23.835Z,4.60
2022-10-28T22:03:52.288Z,4.38
2022-10-28T22:06:20.334Z,4.30
2022-10-28T22:08:47.759Z,4.30
2022-10-28T22:11:20.581Z,4.45
2022-10-28T22:13:54.658Z,3.88
2022-10-28T22:16:22.599Z,3.95
2022-10-28T22:18:50.536Z,4.05
2022-10-28T22:21:26.580Z,3.95
2022-10-28T22:23:54.560Z,3.92
2022-10-28T22:26:27.012Z,3.53
2022-10-28T22:28:55.294Z,4.60
2022-10-28T22:31:25.770Z,3.90
2022-10-28T22:33:53.666Z,3.97
2022-10-28T22:36:23.629Z,4.00
2022-10-28T22:38:51.925Z,4.13
2022-10-28T22:41:21.866Z,4.22
2022-10-28T22:43:54.739Z,3.90
2022-10-28T22:46:23.626Z,3.95
2022-10-28T22:48:51.255Z,3.90
2022-10-28T22:51:18.911Z,4.07
2022-10-28T22:53:47.076Z,3.90
2022-10-28T22:56:25.232Z,4.22
2022-10-28T22:58:57.727Z,4.10
2022-10-28T23:01:26.285Z,3.90
2022-10-28T23:03:54.997Z,3.90
2022-10-28T23:06:25.829Z,4.05
2022-10-28T23:08:54.073Z,3.80
2022-10-28T23:11:22.509Z,4.03
2022-10-28T23:13:52.383Z,4.22
2022-10-28T23:16:20.596Z,4.22
2022-10-28T23:18:52.592Z,3.92
2022-10-28T23:21:25.392Z,4.10
2022-10-28T23:23:57.939Z,4.00
2022-10-28T23:26:27.263Z,3.60
2022-10-28T23:28:57.254Z,3.92
2022-10-28T23:31:25.175Z,3.88
2022-10-28T23:33:54.334Z,3.80
2022-10-28T23:36:21.901Z,4.05
2022-10-28T23:38:49.308Z,3.75
2022-10-28T23:41:18.798Z,3.47
2022-10-28T23:43:48.644Z,3.92
2022-10-28T23:46:16.616Z,4.15
2022-10-28T23:48:44.568Z,3.70
2022-10-28T23:51:11.874Z,3.40
2022-10-28T23:53:39.214Z,4.05
2022-10-28T23:56:07.176Z,4.00
2022-10-28T23:58:34.501Z,3.83
